Kolkata, India

5:49 AM IST on August 29, 2016 (GMT +0530)
Netaji Subhash Chandra Bose International | | Change Station

Elev 20 ft 22.65 °N, 88.44 °E | Updated 19 minutes ago

Haze
Haze
84 °F
Feels Like 98 °F
N
0
Wind Variable Wind from North

Today
High -- | Low -- °F
--% Chance of Precip.
Yesterday
High -- | Low -- °F
Precip. -- in
Pressure 29.65 in
Visibility 1.7 miles
Clouds Scattered Clouds 1800 ft
Scattered Clouds 10000 ft
Heat Index 98 °F
Dew Point 81 °F
Humidity 89%
Rainfall 0.00 in
Snow Depth Not available.
5:17 AM 5:55 PM
Waning Crescent, 12% visible
METAR VECC 290000Z 00000KT 2800 HZ SCT018 SCT100 29/27 Q1004 NOSIG
Pressure 29.65 in
Visibility 1.7 miles
Clouds Scattered Clouds 1800 ft
Scattered Clouds 10000 ft
Heat Index 98 °F
Dew Point 81 °F
Humidity 89%
Rainfall 0.00 in
Snow Depth Not available.
5:17 AM 5:55 PM
Waning Crescent, 12% visible
METAR VECC 290000Z 00000KT 2800 HZ SCT018 SCT100 29/27 Q1004 NOSIG

10-Day Weather Forecast

No radar image for this location.
×

Almanac

Astronomy

Aug. 29, 2016 Rise Set
Actual Time
Civil Twilight
Nautical Twilight
Astronomical Twilight
Moon
Length of Visible Light
Length of Day
Tomorrow will be .
, % of the Moon is Illuminated

Today's Extremes

Country Highs Country Lows

Community

WunderPhotos

Upload Photos

1,935,728 photos uploaded!

WunderBlog® & News

Nearby

Air Quality

  Air Quality AQ Index Pollutant
Not available.

Snow Depth

Station Depth Elevation

Earthquake Activity

City Distance Mag. Time & Date
Minimum magnitude displayed is 2.5.

Coastal Water Temperatures

Place Temperature

Stations

Nearby Weather Stations

Station Location Temp. Windchill Dew Point Humidity Wind Precip. Elev Updated Type